Hrvatski Telekom - fixed broadband Speed Test Log

Averages  Max Speed    
1 to 25 of 45000** for Host Hrvatski Telekom -
Time
Speed Size    User ConnectID  TestID   
2/16/21 5:46:34 am 18.2 Mbps 2.28 MB/s 21.5 MB7164266427 HR K35qeExAa 
2/15/21 9:04:37 pm 1.91 Mbps 239 kB/s 1.3 MB8541623202620 HR E74UoohaU 
2/15/21 9:04:29 pm 17.5 Mbps 2.19 MB/s 81.7 MB8541623202620 HR f035Zk_-y 
2/15/21 6:57:48 am 51.94 Mbps 6.49 MB/s 66.8 MB1780459053164 HR mImGUOqXH 
2/15/21 5:21:16 am 27.61 Mbps 3.45 MB/s 77.2 MB7182690002 VjQOZB0wu 
2/15/21 5:20:18 am 38.67 Mbps 4.83 MB/s 77.2 MB7182690002 uMZ_DoKGg 
2/13/21 9:49:07 pm 73 kbps 9 kB/s 96 kB854164921423 HR 4WK4eroB9 
2/13/21 7:33:36 pm 2.37 Mbps 297 kB/s 2.1 MB8541174409544 HR b~mxaIA4J 
2/13/21 7:32:25 pm 388 kbps 49 kB/s 480 kB8541174409544 HR 02PpB_1Sv 
2/13/21 6:52:25 pm 3.17 Mbps 396 kB/s 13.9 MB85410157235 HR 1BTxQWnws 
2/13/21 6:51:29 pm 19.93 Mbps 2.49 MB/s 23.2 MB85410157235 HR jUYJD2zDH 
2/13/21 3:23:52 pm 25.94 Mbps 3.24 MB/s 22.2 MB85411352417 HR EBrVqq0y- 
2/13/21 3:23:24 pm 19.89 Mbps 2.49 MB/s 23.3 MB85411352417 HR MnroievHk 
2/13/21 10:26:29 am 9.49 Mbps 1.19 MB/s 14.7 MB854126542629 qE_BeKKYo 
2/12/21 5:16:11 pm 46.63 Mbps 5.83 MB/s 81.1 MB817746848977 HR T1z0EP5sD 
2/12/21 4:51:47 pm 32.09 Mbps 4.01 MB/s 23.9 MB71823636200 HR tHZYGTzOl 
2/12/21 4:49:34 pm 31.23 Mbps 3.9 MB/s 23.9 MB71823636200 HR Cj9ZRvFVM 
2/12/21 2:00:57 pm 623 kbps 78 kB/s 480 kB85410329455 HR -c~eD-r2K 
2/12/21 1:41:15 pm 63.84 Mbps 7.98 MB/s 78.1 MB17804591950608 HR 46ZSZ90e5 
2/12/21 12:20:00 pm 7.45 Mbps 931 kB/s 7 MB71824463006 pMiSzJy~G 
2/12/21 10:17:02 am 1.8 Mbps 225 kB/s 1.9 MB854165018263 HR 0gPw7RKRd 
2/12/21 10:03:56 am 26.78 Mbps 3.35 MB/s 23 MB71824463006 9Uz9u-lNt 
2/12/21 9:57:31 am 22.97 Mbps 2.87 MB/s 2.2 MB71824463006 KyLyNN7BI 
2/12/21 9:57:28 am 22.63 Mbps 2.83 MB/s 2.2 MB71824463006 uY05eS0QQ 
2/12/21 9:57:23 am 24.27 Mbps 3.03 MB/s 2.2 MB71824463006 FVS6S-CoL 
  
** Partial Results: The most recent results have been displayed. Results over 50 Mbps are highlighted.
Graphed results calculation
Displaying Internet Speed Test results for Host Hrvatski Telekom - fixed broadband

Minimum

Min 0.39 Mbps : 0.07 Mbps

Average [show Median]

Average 19.15 Mbps : 22.12 Mbps

Maximum

Max 46.63 Mbps : 63.84 Mbps

Minimum

Minimum: 0.39 Mbps : 0.07 Mbps

Average

Average: 19.15 Mbps : 22.12 Mbps [show Median]

Maximum

Maximum: 46.63 Mbps : 63.84 Mbps